Date,TemperatureHighF,TemperatureAvgF,TemperatureLowF,DewpointHighF,DewpointAvgF,DewpointLowF,HumidityHigh,HumidityAvg,HumidityLow,PressureMaxIn,PressureMinIn,WindSpeedMaxMPH,WindSpeedAvgMPH,GustSpeedMaxMPH,PrecipitationSumIn
2013-1-1,11,1,-4,-100,-100,-100,0,0,100,0.00,40.00,0,-999,0,0.00
2013-1-2,21,13,3,-100,-100,-100,0,0,100,0.00,40.00,0,-999,0,0.00
2013-1-3,10,10,10,-100,-100,-100,0,0,100,0.00,40.00,0,-999,0,0.00
2013-1-4,27,17,10,-100,-100,-100,0,0,100,0.00,40.00,0,-999,0,0.00
2013-1-5,35,25,19,-100,-100,-100,0,0,100,0.00,40.00,0,-999,0,0.00
2013-1-6,33,25,23,-100,-100,-100,0,0,100,0.00,40.00,0,-999,0,0.00
2013-1-7,34,24,19,-100,-100,-100,0,0,100,0.00,40.00,0,-999,0,0.00
2013-1-8,36,28,20,-100,-100,-100,0,0,100,0.00,40.00,0,-999,0,0.00
2013-1-9,35,29,24,-100,-100,-100,0,0,100,0.00,40.00,0,-999,0,0.00
2013-1-10,29,24,21,-100,-100,-100,0,0,100,0.00,40.00,0,-999,0,0.00
2013-1-11,17,5,-6,-100,-100,-100,0,0,100,0.00,40.00,0,-999,0,0.02
2013-1-12,-1,-9,-16,-100,-100,-100,0,0,100,0.00,40.00,0,-999,0,0.01
2013-1-13,1,-8,-16,-100,-100,-100,0,0,100,0.00,40.00,0,-999,0,0.00
2013-1-14,-3,-6,-10,-100,-100,-100,0,0,100,0.00,40.00,0,-999,0,0.00
2013-1-15,12,1,-13,-100,-100,-100,0,0,100,0.00,40.00,0,-999,0,0.00
2013-1-16,33,28,17,-100,-100,-100,0,0,100,0.00,40.00,0,-999,0,0.00
2013-1-17,29,21,17,-100,-100,-100,0,0,100,0.00,40.00,0,-999,0,0.00
2013-1-18,32,20,14,-100,-100,-100,0,0,100,0.00,40.00,0,-999,0,0.00
2013-1-19,37,23,18,-100,-100,-100,0,0,100,0.00,40.00,0,-999,0,0.00
2013-1-20,37,26,22,-100,-100,-100,0,0,100,0.00,40.00,0,-999,0,0.00
2013-1-21,37,29,23,-100,-100,-100,0,0,100,0.00,40.00,0,-999,0,0.00
2013-1-22,44,33,28,-100,-100,-100,0,0,100,0.00,40.00,0,-999,0,0.00
2013-1-23,43,34,29,-100,-100,-100,0,0,100,0.00,40.00,0,-999,0,0.00
2013-1-24,38,32,29,-100,-100,-100,0,0,100,0.00,40.00,0,-999,0,0.00
2013-1-25,32,29,26,-100,-100,-100,0,0,100,0.00,40.00,0,-999,0,0.00
2013-1-26,33,30,28,-100,-100,-100,0,0,100,0.00,40.00,0,-999,0,0.02
2013-1-27,31,28,26,-100,-100,-100,0,0,100,0.00,40.00,0,-999,0,0.00
2013-1-28,26,20,11,-100,-100,-100,0,0,100,0.00,40.00,0,-999,0,0.04
2013-1-29,9,7,4,-100,-100,-100,0,0,100,0.00,40.00,0,-999,0,0.00
2013-1-30,17,9,-2,-100,-100,-100,0,0,100,0.00,40.00,0,-999,0,0.00
2013-1-31,27,19,13,-100,-100,-100,0,0,100,0.00,40.00,0,-999,0,0.00
2013-2-1,29,20,15,-100,-100,-100,0,0,100,0.00,40.00,0,-999,0,0.00
2013-2-2,38,30,23,-100,-100,-100,0,0,100,0.00,40.00,0,-999,0,0.00
2013-2-3,27,25,24,-100,-100,-100,0,0,100,0.00,40.00,0,-999,0,0.00
2013-2-4,34,23,16,-100,-100,-100,0,0,100,0.00,40.00,0,-999,0,0.00
2013-2-5,38,30,26,-100,-100,-100,0,0,100,0.00,40.00,0,-999,0,0.00
2013-2-6,32,24,18,-100,-100,-100,0,0,100,0.00,40.00,0,-999,0,0.00
2013-2-7,30,19,10,-100,-100,-100,0,0,100,0.00,40.00,0,-999,0,0.00
2013-2-8,25,22,20,-100,-100,-100,0,0,100,0.00,40.00,0,-999,0,0.00
2013-2-9,16,14,8,-100,-100,-100,0,0,100,0.00,40.00,0,-999,0,0.02
2013-2-10,14,9,5,-100,-100,-100,0,0,100,0.00,40.00,0,-999,0,0.02
2013-2-11,11,8,4,-100,-100,-100,0,0,100,0.00,40.00,0,-999,0,0.02
2013-2-12,18,8,-4,-100,-100,-100,0,0,100,0.00,40.00,0,-999,0,0.00
2013-2-13,33,18,9,-100,-100,-100,0,0,100,0.00,40.00,0,-999,0,0.00
2013-2-14,28,20,11,-100,-100,-100,0,0,100,0.00,40.00,0,-999,0,0.00
2013-2-15,24,20,14,-100,-100,-100,0,0,100,0.00,40.00,0,-999,0,0.00
2013-2-16,34,24,16,-100,-100,-100,0,0,100,0.00,40.00,0,-999,0,0.00
2013-2-17,31,23,18,-100,-100,-100,0,0,100,0.00,40.00,0,-999,0,0.00
2013-2-18,24,14,8,-100,-100,-100,0,0,100,0.00,40.00,0,-999,0,0.00
2013-2-19,27,19,10,-100,-100,-100,0,0,100,0.00,40.00,0,-999,0,0.00
2013-2-20,20,17,13,-100,-100,-100,0,0,100,0.00,40.00,0,-999,0,0.01
2013-2-21,20,12,8,-100,-100,-100,0,0,100,0.00,40.00,0,-999,0,0.01
2013-2-22,16,11,6,-100,-100,-100,0,0,100,0.00,40.00,0,-999,0,0.00
2013-2-23,20,15,9,-100,-100,-100,0,0,100,0.00,40.00,0,-999,0,0.00
2013-2-24,9,2,-5,-100,-100,-100,0,0,100,0.00,40.00,0,-999,0,0.00
2013-2-25,26,16,7,-100,-100,-100,0,0,100,0.00,40.00,0,-999,0,0.00
2013-2-26,13,10,7,-100,-100,-100,0,0,100,0.00,40.00,0,-999,0,0.00
2013-2-27,19,12,6,-100,-100,-100,0,0,100,0.00,40.00,0,-999,0,0.00
2013-2-28,28,16,4,-100,-100,-100,0,0,100,0.00,40.00,0,-999,0,0.00
2013-3-1,36,26,18,-100,-100,-100,0,0,100,0.00,40.00,0,-999,0,0.00
2013-3-2,43,30,23,-100,-100,-100,0,0,100,0.00,40.00,0,-999,0,0.00
2013-3-3,34,30,27,-100,-100,-100,0,0,100,0.00,40.00,0,-999,0,0.00
2013-3-4,29,25,22,-100,-100,-100,0,0,100,0.00,40.00,0,-999,0,0.00
2013-3-5,36,24,19,-100,-100,-100,0,0,100,0.00,40.00,0,-999,0,0.00
2013-3-6,36,27,22,-100,-100,-100,0,0,100,0.00,40.00,0,-999,0,0.00
2013-3-7,38,29,22,-100,-100,-100,0,0,100,0.00,40.00,0,-999,0,0.00
2013-3-8,28,26,25,-100,-100,-100,0,0,100,0.00,40.00,0,-999,0,0.00
2013-3-9,20,13,9,-100,-100,-100,0,0,100,0.00,40.00,0,-999,0,0.00
2013-3-10,29,16,7,-100,-100,-100,0,0,100,0.00,40.00,0,-999,0,0.00
2013-3-11,35,24,18,-100,-100,-100,0,0,100,0.00,40.00,0,-999,0,0.00
2013-3-12,39,28,22,-100,-100,-100,0,0,100,0.00,40.00,0,-999,0,0.00
2013-3-13,42,32,26,-100,-100,-100,0,0,100,0.00,40.00,0,-999,0,0.00
2013-3-14,48,36,31,-100,-100,-100,0,0,100,0.00,40.00,0,-999,0,0.00
2013-3-15,46,39,34,-100,-100,-100,0,0,100,0.00,40.00,0,-999,0,0.00
2013-3-16,37,34,31,-100,-100,-100,0,0,100,0.00,40.00,0,-999,0,0.00
2013-3-17,35,28,25,-100,-100,-100,0,0,100,0.00,40.00,0,-999,0,0.00
2013-3-18,31,24,19,-100,-100,-100,0,0,100,0.00,40.00,0,-999,0,0.00
2013-3-19,34,29,25,-100,-100,-100,0,0,100,0.00,40.00,0,-999,0,0.00
2013-3-20,33,26,21,-100,-100,-100,0,0,100,0.00,40.00,0,-999,0,0.00
2013-3-21,32,28,24,-100,-100,-100,0,0,100,0.00,40.00,0,-999,0,0.00
2013-3-22,30,25,21,-100,-100,-100,0,0,100,0.00,40.00,0,-999,0,0.00
2013-3-23,18,8,3,-100,-100,-100,0,0,100,0.00,40.00,0,-999,0,0.00
2013-3-24,23,10,1,-100,-100,-100,0,0,100,0.00,40.00,0,-999,0,0.01
2013-3-25,27,16,4,-100,-100,-100,0,0,100,0.00,40.00,0,-999,0,0.00
2013-3-26,34,27,20,-100,-100,-100,0,0,100,0.00,40.00,0,-999,0,0.00
2013-3-27,40,30,26,-100,-100,-100,0,0,100,0.00,40.00,0,-999,0,0.00
2013-3-28,41,34,27,-100,-100,-100,0,0,100,0.00,40.00,0,-999,0,0.00
2013-3-29,32,31,31,-100,-100,-100,0,0,100,0.00,40.00,0,-999,0,0.00
2013-3-30,42,33,29,-100,-100,-100,0,0,100,0.00,40.00,0,-999,0,0.00
2013-3-31,44,33,27,-100,-100,-100,0,0,100,0.00,40.00,0,-999,0,0.00
2013-4-1,41,35,30,-100,-100,-100,0,0,100,0.00,40.00,0,-999,0,0.00
2013-4-2,39,30,24,-100,-100,-100,0,0,100,0.00,40.00,0,-999,0,0.00
2013-4-3,42,27,20,-100,-100,-100,0,0,100,0.00,40.00,0,-999,0,0.01
2013-4-4,45,33,25,-100,-100,-100,0,0,100,0.00,40.00,0,-999,0,0.00
2013-4-5,42,36,31,-100,-100,-100,0,0,100,0.00,40.00,0,-999,0,0.00
2013-4-6,43,39,34,-100,-100,-100,0,0,100,0.00,40.00,0,-999,0,0.00
2013-4-7,40,34,31,-100,-100,-100,0,0,100,0.00,40.00,0,-999,0,0.00
2013-4-8,34,30,28,-100,-100,-100,0,0,100,0.00,40.00,0,-999,0,0.00
2013-4-9,28,24,22,-100,-100,-100,0,0,100,0.00,40.00,0,-999,0,0.05
2013-4-10,22,18,15,-100,-100,-100,0,0,100,0.00,40.00,0,-999,0,0.00
2013-4-11,36,28,13,-100,-100,-100,0,0,100,0.00,40.00,0,-999,0,0.00
2013-4-12,37,27,18,-100,-100,-100,0,0,100,0.00,40.00,0,-999,0,0.00
2013-4-13,40,35,28,-100,-100,-100,0,0,100,0.00,40.00,0,-999,0,0.00
2013-4-14,34,32,27,-100,-100,-100,0,0,100,0.00,40.00,0,-999,0,0.00
2013-4-15,38,33,28,-100,-100,-100,0,0,100,0.00,40.00,0,-999,0,0.00
2013-4-16,43,32,27,-100,-100,-100,0,0,100,0.00,40.00,0,-999,0,0.00
2013-4-17,28,22,16,-100,-100,-100,0,0,100,0.00,40.00,0,-999,0,0.00
2013-4-18,22,14,9,-100,-100,-100,0,0,100,0.00,40.00,0,-999,0,0.01
2013-4-19,35,20,9,-100,-100,-100,0,0,100,0.00,40.00,0,-999,0,0.00
2013-4-20,33,28,24,-100,-100,-100,0,0,100,0.00,40.00,0,-999,0,0.00
2013-4-21,43,36,24,-100,-100,-100,0,0,100,0.00,40.00,0,-999,0,0.00
2013-4-22,44,38,35,-100,-100,-100,0,0,100,0.00,40.00,0,-999,0,0.00
2013-4-23,35,33,28,-100,-100,-100,0,0,100,0.00,40.00,0,-999,0,0.00
2013-4-24,39,37,32,-100,-100,-100,0,0,100,0.00,40.00,0,-999,0,0.00
2013-4-25,43,34,30,-100,-100,-100,0,0,100,0.00,40.00,0,-999,0,0.00
2013-4-26,39,34,28,-100,-100,-100,0,0,100,0.00,40.00,0,-999,0,0.00
2013-4-27,45,35,30,-100,-100,-100,0,0,100,0.00,40.00,0,-999,0,0.00
2013-4-28,52,42,35,-100,-100,-100,0,0,100,0.00,40.00,0,-999,0,0.00
2013-4-29,54,47,40,-100,-100,-100,0,0,100,0.00,40.00,0,-999,0,0.00
2013-4-30,46,44,43,-100,-100,-100,0,0,100,0.00,40.00,0,-999,0,0.00
2013-5-1,44,36,27,-100,-100,-100,0,0,100,0.00,40.00,0,-999,0,0.00
2013-5-2,40,28,20,-100,-100,-100,0,0,100,0.00,40.00,0,-999,0,0.01
2013-5-3,44,34,25,-100,-100,-100,0,0,100,0.00,40.00,0,-999,0,0.00
2013-5-4,43,38,31,-100,-100,-100,0,0,100,0.00,40.00,0,-999,0,0.00
2013-5-5,45,40,37,-100,-100,-100,0,0,100,0.00,40.00,0,-999,0,0.00
2013-5-6,35,33,31,-100,-100,-100,0,0,100,0.00,40.00,0,-999,0,0.02
2013-5-7,38,35,32,-100,-100,-100,0,0,100,0.00,40.00,0,-999,0,0.00
2013-5-8,36,30,26,-100,-100,-100,0,0,100,0.00,40.00,0,-999,0,0.01
2013-5-9,34,29,24,-100,-100,-100,0,0,100,0.00,40.00,0,-999,0,0.01
2013-5-10,39,31,25,-100,-100,-100,0,0,100,0.00,40.00,0,-999,0,0.00
2013-5-11,43,36,30,-100,-100,-100,0,0,100,0.00,40.00,0,-999,0,0.01
2013-5-12,49,40,34,-100,-100,-100,0,0,100,0.00,40.00,0,-999,0,0.00
2013-5-13,46,44,37,-100,-100,-100,0,0,100,0.00,40.00,0,-999,0,0.00
2013-5-14,50,44,40,-100,-100,-100,0,0,100,0.00,40.00,0,-999,0,0.00
2013-5-15,49,46,41,-100,-100,-100,0,0,100,0.00,40.00,0,-999,0,0.00
2013-5-16,51,45,39,-100,-100,-100,0,0,100,0.00,40.00,0,-999,0,0.00
2013-5-17,52,43,39,-100,-100,-100,0,0,100,0.00,40.00,0,-999,0,0.00
2013-5-18,43,39,36,-100,-100,-100,0,0,100,0.00,40.00,0,-999,0,0.00
2013-5-19,37,34,32,-100,-100,-100,0,0,100,0.00,40.00,0,-999,0,0.00
2013-5-20,41,36,33,-100,-100,-100,0,0,100,0.00,40.00,0,-999,0,0.00
2013-5-21,45,41,30,-100,-100,-100,0,0,100,0.00,40.00,0,-999,0,0.00
2013-5-22,53,44,36,-100,-100,-100,0,0,100,0.00,40.00,0,-999,0,0.00
2013-5-23,54,47,40,-100,-100,-100,0,0,100,0.00,40.00,0,-999,0,0.00
2013-5-24,53,46,41,-100,-100,-100,0,0,100,0.00,40.00,0,-999,0,0.00
2013-5-25,55,46,39,-100,-100,-100,0,0,100,0.00,40.00,0,-999,0,0.01
2013-5-26,52,46,40,-100,-100,-100,0,0,100,0.00,40.00,0,-999,0,0.00
2013-5-27,53,45,39,-100,-100,-100,0,0,100,0.00,40.00,0,-999,0,0.00
2013-5-28,51,44,37,-100,-100,-100,0,0,100,0.00,40.00,0,-999,0,0.00
2013-5-29,45,39,34,-100,-100,-100,0,0,100,0.00,40.00,0,-999,0,0.00
2013-5-30,48,41,33,-100,-100,-100,0,0,100,0.00,40.00,0,-999,0,0.00
2013-5-31,52,44,40,-100,-100,-100,0,0,100,0.00,40.00,0,-999,0,0.01
2013-6-1,57,46,37,-100,-100,-100,0,0,100,0.00,40.00,0,-999,0,0.00
2013-6-2,58,49,42,-100,-100,-100,0,0,100,0.00,40.00,0,-999,0,0.00
2013-6-3,54,49,44,-100,-100,-100,0,0,100,0.00,40.00,0,-999,0,0.00
2013-6-4,58,54,49,-100,-100,-100,0,0,100,0.00,40.00,0,-999,0,0.00
2013-6-5,59,54,50,-100,-100,-100,0,0,100,0.00,40.00,0,-999,0,0.00
2013-6-6,55,51,45,-100,-100,-100,0,0,100,0.00,40.00,0,-999,0,0.00
2013-6-7,53,49,46,-100,-100,-100,0,0,100,0.00,40.00,0,-999,0,0.00
2013-6-8,64,54,44,-100,-100,-100,0,0,100,0.00,40.00,0,-999,0,0.01
2013-6-9,69,58,48,-100,-100,-100,0,0,100,0.00,40.00,0,-999,0,0.00
2013-6-10,69,59,51,-100,-100,-100,0,0,100,0.00,40.00,0,-999,0,0.00
2013-6-11,62,55,50,-100,-100,-100,0,0,100,0.00,40.00,0,-999,0,0.00
2013-6-12,65,56,48,-100,-100,-100,0,0,100,0.00,40.00,0,-999,0,0.00
2013-6-13,65,56,51,-100,-100,-100,0,0,100,0.00,40.00,0,-999,0,0.00
2013-6-14,64,54,47,-100,-100,-100,0,0,100,0.00,40.00,0,-999,0,0.01
2013-6-15,57,51,46,-100,-100,-100,0,0,100,0.00,40.00,0,-999,0,0.00
2013-6-16,61,51,42,-100,-100,-100,0,0,100,0.00,40.00,0,-999,0,0.00
2013-6-17,60,52,46,-100,-100,-100,0,0,100,0.00,40.00,0,-999,0,0.00
2013-6-18,58,53,45,-100,-100,-100,0,0,100,0.00,40.00,0,-999,0,0.01
2013-6-19,62,55,48,-100,-100,-100,0,0,100,0.00,40.00,0,-999,0,0.00
2013-6-20,61,50,47,-100,-100,-100,0,0,100,0.00,40.00,0,-999,0,0.00
2013-6-22,61,55,48,-100,-100,-100,0,0,100,0.00,40.00,0,-999,0,0.00
2013-6-23,59,53,43,-100,-100,-100,0,0,100,0.00,40.00,0,-999,0,0.00
2013-6-24,60,51,47,-100,-100,-100,0,0,100,0.00,40.00,0,-999,0,0.00
2013-6-25,57,53,45,-100,-100,-100,0,0,100,0.00,40.00,0,-999,0,0.00
2013-6-26,70,59,46,-100,-100,-100,0,0,100,0.00,40.00,0,-999,0,0.00
2013-6-27,59,58,56,-100,-100,-100,0,0,100,0.00,40.00,0,-999,0,0.00
2013-6-28,68,60,56,-100,-100,-100,0,0,100,0.00,40.00,0,-999,0,0.00
2013-6-29,58,55,48,-100,-100,-100,0,0,100,0.00,40.00,0,-999,0,0.00
2013-6-30,62,56,49,-100,-100,-100,0,0,100,0.00,40.00,0,-999,0,0.01
2013-7-1,61,58,49,-100,-100,-100,0,0,100,0.00,40.00,0,-999,0,0.00
2013-7-2,62,52,45,-100,-100,-100,0,0,100,0.00,40.00,0,-999,0,0.00
2013-7-3,62,55,44,-100,-100,-100,0,0,100,0.00,40.00,0,-999,0,0.00
2013-7-4,63,59,56,-100,-100,-100,0,0,100,0.00,40.00,0,-999,0,0.00
2013-7-5,58,54,51,-100,-100,-100,0,0,100,0.00,40.00,0,-999,0,0.00
2013-7-6,59,52,49,-100,-100,-100,0,0,100,0.00,40.00,0,-999,0,0.01
2013-7-7,61,56,48,-100,-100,-100,0,0,100,0.00,40.00,0,-999,0,0.01
2013-7-8,54,54,53,-100,-100,-100,0,0,100,0.00,40.00,0,-999,0,0.00
2013-7-9,63,58,50,-100,-100,-100,0,0,100,0.00,40.00,0,-999,0,0.00
2013-7-10,64,55,50,-100,-100,-100,0,0,100,0.00,40.00,0,-999,0,0.00
2013-7-11,65,57,49,-100,-100,-100,0,0,100,0.00,40.00,0,-999,0,0.00
2013-7-12,62,51,46,-100,-100,-100,0,0,100,0.00,40.00,0,-999,0,0.01
2013-7-13,65,55,46,-100,-100,-100,0,0,100,0.00,40.00,0,-999,0,0.01
2013-7-14,63,54,48,-100,-100,-100,0,0,100,0.00,40.00,0,-999,0,0.01
2013-7-15,57,50,46,-100,-100,-100,0,0,100,0.00,40.00,0,-999,0,0.01
2013-7-16,50,48,45,-100,-100,-100,0,0,100,0.00,40.00,0,-999,0,0.68
2013-7-17,55,49,45,-100,-100,-100,0,0,100,0.00,40.00,0,-999,0,0.68
2013-7-18,59,53,42,-100,-100,-100,0,0,100,0.00,40.00,0,-999,0,0.00
2013-7-19,58,52,45,-100,-100,-100,0,0,100,0.00,40.00,0,-999,0,0.00
2013-7-20,61,52,46,-100,-100,-100,0,0,100,0.00,40.00,0,-999,0,0.01
2013-7-21,64,52,46,-100,-100,-100,0,0,100,0.00,40.00,0,-999,0,0.01
2013-7-22,65,53,45,-100,-100,-100,0,0,100,0.00,40.00,0,-999,0,0.01
2013-7-23,66,56,50,-100,-100,-100,0,0,100,0.00,40.00,0,-999,0,0.01
2013-7-24,63,55,47,-100,-100,-100,0,0,100,0.00,40.00,0,-999,0,0.00
2013-7-25,66,54,44,-100,-100,-100,0,0,100,0.00,40.00,0,-999,0,0.01
2013-7-26,60,52,44,-100,-100,-100,0,0,100,0.00,40.00,0,-999,0,0.03
2013-7-27,61,50,42,-100,-100,-100,0,0,100,0.00,40.00,0,-999,0,0.02
2013-7-28,51,48,45,-100,-100,-100,0,0,100,0.00,40.00,0,-999,0,0.02
2013-7-29,58,50,44,-100,-100,-100,0,0,100,0.00,40.00,0,-999,0,0.02
2013-7-30,62,54,45,-100,-100,-100,0,0,100,0.00,40.00,0,-999,0,0.00
2013-7-31,65,56,48,-100,-100,-100,0,0,100,0.00,40.00,0,-999,0,0.00
2013-8-1,55,51,48,-100,-100,-100,0,0,100,0.00,40.00,0,-999,0,0.01
2013-8-2,63,53,43,-100,-100,-100,0,0,100,0.00,40.00,0,-999,0,0.02
2013-8-3,60,51,44,-100,-100,-100,0,0,100,0.00,40.00,0,-999,0,0.02
2013-8-4,61,53,46,-100,-100,-100,0,0,100,0.00,40.00,0,-999,0,0.00
2013-8-5,62,52,45,-100,-100,-100,0,0,100,0.00,40.00,0,-999,0,0.00
2013-8-6,55,49,43,-100,-100,-100,0,0,100,0.00,40.00,0,-999,0,0.05
2013-8-7,53,46,43,-100,-100,-100,0,0,100,0.00,40.00,0,-999,0,0.01
2013-8-8,50,44,41,-100,-100,-100,0,0,100,0.00,40.00,0,-999,0,0.04
2013-8-9,57,47,38,-100,-100,-100,0,0,100,0.00,40.00,0,-999,0,0.01
2013-8-10,58,46,39,-100,-100,-100,0,0,100,0.00,40.00,0,-999,0,0.00
2013-8-11,58,46,38,-100,-100,-100,0,0,100,0.00,40.00,0,-999,0,0.01
2013-8-12,58,52,45,-100,-100,-100,0,0,100,0.00,40.00,0,-999,0,0.00
2013-8-25,48,46,45,-100,-100,-100,0,0,100,0.00,40.00,0,-999,0,0.04
2013-8-26,57,51,47,-100,-100,-100,0,0,100,0.00,40.00,0,-999,0,0.02
2013-8-27,57,51,45,-100,-100,-100,0,0,100,0.00,40.00,0,-999,0,0.00
2013-8-28,63,56,49,-100,-100,-100,0,0,100,0.00,40.00,0,-999,0,0.00
2013-8-29,60,52,46,-100,-100,-100,0,0,100,0.00,40.00,0,-999,0,0.00
2013-8-30,65,58,50,-100,-100,-100,0,0,100,0.00,40.00,0,-999,0,0.01
2013-8-31,61,52,46,-100,-100,-100,0,0,100,0.00,40.00,0,-999,0,0.01
2013-9-1,65,55,47,-100,-100,-100,0,0,100,0.00,40.00,0,-999,0,0.00
2013-9-2,63,53,45,-100,-100,-100,0,0,100,0.00,40.00,0,-999,0,0.01
2013-9-3,57,51,47,-100,-100,-100,0,0,100,0.00,40.00,0,-999,0,0.00
2013-9-4,65,56,49,-100,-100,-100,0,0,100,0.00,40.00,0,-999,0,0.01
2013-9-5,66,55,44,-100,-100,-100,0,0,100,0.00,40.00,0,-999,0,0.02
2013-9-6,66,54,46,-100,-100,-100,0,0,100,0.00,40.00,0,-999,0,0.00
2013-9-12,54,46,40,-100,-100,-100,0,0,100,0.00,40.00,0,-999,0,0.01
2013-9-13,51,46,43,-100,-100,-100,0,0,100,0.00,40.00,0,-999,0,0.03
2013-9-14,48,42,38,-100,-100,-100,0,0,100,0.00,40.00,0,-999,0,0.04
2013-9-15,53,44,38,-100,-100,-100,0,0,100,0.00,40.00,0,-999,0,0.03
2013-9-16,51,44,42,-100,-100,-100,0,0,100,0.00,40.00,0,-999,0,0.00
2013-9-17,53,46,43,-100,-100,-100,0,0,100,0.00,40.00,0,-999,0,0.00
2013-9-18,46,45,42,-100,-100,-100,0,0,100,0.00,40.00,0,-999,0,0.02
2013-9-19,55,44,39,-100,-100,-100,0,0,100,0.00,40.00,0,-999,0,0.01
2013-9-20,58,47,37,-100,-100,-100,0,0,100,0.00,40.00,0,-999,0,0.00
2013-9-21,54,46,40,-100,-100,-100,0,0,100,0.00,40.00,0,-999,0,0.00
2013-9-22,44,40,30,-100,-100,-100,0,0,100,0.00,40.00,0,-999,0,0.03
2013-9-23,43,34,29,-100,-100,-100,0,0,100,0.00,40.00,0,-999,0,0.02
2013-9-24,55,43,33,-100,-100,-100,0,0,100,0.00,40.00,0,-999,0,0.00
2013-9-25,54,45,37,-100,-100,-100,0,0,100,0.00,40.00,0,-999,0,0.00
2013-9-26,50,43,36,-100,-100,-100,0,0,100,0.00,40.00,0,-999,0,0.00
2013-9-27,41,30,23,-100,-100,-100,0,0,100,0.00,40.00,0,-999,0,0.01
2013-10-2,52,44,35,-100,-100,-100,0,0,100,0.00,40.00,0,-999,0,0.00
2013-10-3,47,41,33,-100,-100,-100,0,0,100,0.00,40.00,0,-999,0,0.00
2013-10-4,38,32,23,-100,-100,-100,0,0,100,0.00,40.00,0,-999,0,0.00
2013-10-5,40,32,20,-100,-100,-100,0,0,100,0.00,40.00,0,-999,0,0.00
2013-10-6,50,40,33,-100,-100,-100,0,0,100,0.00,40.00,0,-999,0,0.00
2013-10-7,51,42,35,-100,-100,-100,0,0,100,0.00,40.00,0,-999,0,0.00
2013-10-8,49,41,35,-100,-100,-100,0,0,100,0.00,40.00,0,-999,0,0.00
2013-10-9,42,38,33,-100,-100,-100,0,0,100,0.00,40.00,0,-999,0,0.00
2013-10-10,36,32,26,-100,-100,-100,0,0,100,0.00,40.00,0,-999,0,0.03
2013-10-11,31,27,23,-100,-100,-100,0,0,100,0.00,40.00,0,-999,0,0.01
2013-10-12,38,27,19,-100,-100,-100,0,0,100,0.00,40.00,0,-999,0,0.00
2013-10-13,40,37,33,-100,-100,-100,0,0,100,0.00,40.00,0,-999,0,0.00
2013-10-21,32,30,29,-100,-100,-100,0,0,100,0.00,40.00,0,-999,0,0.00
2013-10-22,45,35,28,-100,-100,-100,0,0,100,0.00,40.00,0,-999,0,0.00
2013-10-23,31,31,31,-100,-100,-100,0,0,100,0.00,40.00,0,-999,0,0.00
2013-10-24,45,41,37,-100,-100,-100,0,0,100,0.00,40.00,0,-999,0,0.00
2013-10-25,34,33,32,-100,-100,-100,0,0,100,0.00,40.00,0,-999,0,0.00
2013-10-26,42,34,28,-100,-100,-100,0,0,100,0.00,40.00,0,-999,0,0.00
2013-10-27,35,32,30,-100,-100,-100,0,0,100,0.00,40.00,0,-999,0,0.00
2013-11-12,45,35,29,-100,-100,-100,0,0,100,0.00,40.00,0,-999,0,0.00
2013-11-13,39,37,35,-100,-100,-100,0,0,100,0.00,40.00,0,-999,0,0.00
2013-11-14,36,30,23,-100,-100,-100,0,0,100,0.00,40.00,0,-999,0,0.00
2013-11-15,29,28,28,-100,-100,-100,0,0,100,0.00,40.00,0,-999,0,0.00
2013-11-16,24,23,22,-100,-100,-100,0,0,100,0.00,40.00,0,-999,0,0.00
2013-11-17,29,29,29,-100,-100,-100,0,0,100,0.00,40.00,0,-999,0,0.00
2013-11-18,25,21,17,-100,-100,-100,0,0,100,0.00,40.00,0,-999,0,0.00
2013-11-19,35,28,20,-100,-100,-100,0,0,100,0.00,40.00,0,-999,0,0.00
2013-11-20,28,26,22,-100,-100,-100,0,0,100,0.00,40.00,0,-999,0,0.01
2013-11-21,28,27,26,-100,-100,-100,0,0,100,0.00,40.00,0,-999,0,0.03
2013-11-22,28,28,27,-100,-100,-100,0,0,100,0.00,40.00,0,-999,0,0.00
2013-11-23,30,28,24,-100,-100,-100,0,0,100,0.00,40.00,0,-999,0,0.06
2013-11-24,25,20,17,-100,-100,-100,0,0,100,0.00,40.00,0,-999,0,0.03
2013-11-25,26,24,17,-100,-100,-100,0,0,100,0.00,40.00,0,-999,0,0.00
2013-11-26,30,21,14,-100,-100,-100,0,0,100,0.00,40.00,0,-999,0,0.01
2013-11-27,36,26,17,-100,-100,-100,0,0,100,0.00,40.00,0,-999,0,0.00
2013-11-28,35,27,21,-100,-100,-100,0,0,100,0.00,40.00,0,-999,0,0.00
2013-11-29,31,22,17,-100,-100,-100,0,0,100,0.00,40.00,0,-999,0,0.00
2013-11-30,28,22,20,-100,-100,-100,0,0,100,0.00,40.00,0,-999,0,0.00
2013-12-1,34,23,18,-100,-100,-100,0,0,100,0.00,40.00,0,-999,0,0.00
2013-12-2,35,32,29,-100,-100,-100,0,0,100,0.00,40.00,0,-999,0,0.00
2013-12-3,26,25,24,-100,-100,-100,0,0,100,0.00,40.00,0,-999,0,0.00
2013-12-4,23,16,4,-100,-100,-100,0,0,100,0.00,40.00,0,-999,0,0.00
2013-12-11,28,23,15,-100,-100,-100,0,0,100,0.00,40.00,0,-999,0,0.02
2013-12-12,20,19,18,-100,-100,-100,0,0,100,0.00,40.00,0,-999,0,0.00
2013-12-13,30,25,19,-100,-100,-100,0,0,100,0.00,40.00,0,-999,0,0.04
2013-12-14,25,20,14,-100,-100,-100,0,0,100,0.00,40.00,0,-999,0,0.00
2013-12-15,37,32,26,-100,-100,-100,0,0,100,0.00,40.00,0,-999,0,0.00
2013-12-16,41,34,26,-100,-100,-100,0,0,100,0.00,40.00,0,-999,0,0.00
2013-12-17,30,28,26,-100,-100,-100,0,0,100,0.00,40.00,0,-999,0,0.00
2013-12-18,38,34,31,-100,-100,-100,0,0,100,0.00,40.00,0,-999,0,0.00
2013-12-19,29,26,22,-100,-100,-100,0,0,100,0.00,40.00,0,-999,0,0.00
2013-12-20,21,20,20,-100,-100,-100,0,0,100,0.00,40.00,0,-999,0,0.00
2013-12-21,20,12,8,-100,-100,-100,0,0,100,0.00,40.00,0,-999,0,0.00
2013-12-22,18,13,3,-100,-100,-100,0,0,100,0.00,40.00,0,-999,0,0.00
2013-12-23,25,22,20,-100,-100,-100,0,0,100,0.00,40.00,0,-999,0,0.00
2013-12-24,30,25,18,-100,-100,-100,0,0,100,0.00,40.00,0,-999,0,0.02
2013-12-25,27,18,13,-100,-100,-100,0,0,100,0.00,40.00,0,-999,0,0.00
2013-12-26,34,26,19,-100,-100,-100,0,0,100,0.00,40.00,0,-999,0,0.00
2013-12-27,21,21,21,-100,-100,-100,0,0,100,0.00,40.00,0,-999,0,0.00
2013-12-28,28,28,28,-100,-100,-100,0,0,100,0.00,40.00,0,-999,0,0.00
2013-12-29,16,14,13,-100,-100,-100,0,0,100,0.00,40.00,0,-999,0,0.00
2013-12-30,28,26,23,-100,-100,-100,0,0,100,0.00,40.00,0,-999,0,0.00
2013-12-31,28,26,24,-100,-100,-100,0,0,100,0.00,40.00,0,-999,0,0.00
2014-1-1,29,24,18,-100,-100,-100,0,0,100,0.00,40.00,0,-999,0,0.00
2014-1-2,35,24,18,-100,-100,-100,0,0,100,0.00,40.00,0,-999,0,0.00